F/V Harvestor — WDC8229 — position and weather

sailwx.info

Track history (hours):
 
Tides and Currents Weather Stations Pressure Air Temp Water Temp Dewpoint Dewpoint Depression Visibility Wind Speed Wind Dir Waves Ship Positions

F/V Harvestor

Owner: F/V HARVESTOR INC., EDMONDS, WA. More information available from US FCC via Universal Licensing System and Coast Guard Vessel Documentation Center.

Last reported at 2014-Nov-21 15:33 UTC. Time now 2014-Nov-21 16:34 UTC.
Position N 47°38' W 122°23'.

Length 40 m.

Type: Fishing. MMSI: 367083650.

Date/timePositionNaut miles runAvg speedWind from/ knotsBaromVisibWave heightAir tempDewpointWater temp
2014-Nov-21 15:33N 47°38' W 122°23'0 0.0
2014-Nov-21 15:30N 47°38' W 122°23'0 0.0
2014-Nov-21 14:33N 47°38' W 122°23'0 0.0
2014-Nov-21 14:30N 47°38' W 122°23'0 0.0
2014-Nov-21 13:33N 47°38' W 122°23'0 0.0
2014-Nov-21 13:29N 47°38' W 122°23'0 0.0
2014-Nov-21 12:33N 47°38' W 122°23'0 0.0
2014-Nov-21 12:29N 47°38' W 122°23'0 0.0
2014-Nov-21 11:33N 47°38' W 122°23'0 0.0
2014-Nov-21 11:29N 47°38' W 122°23'0 0.0
2014-Nov-21 10:33N 47°38' W 122°23'0 0.0
2014-Nov-21 10:29N 47°38' W 122°23'0 0.0
2014-Nov-21 09:33N 47°38' W 122°23'0 0.2
2014-Nov-21 09:29N 47°38' W 122°23'5 5.5
2014-Nov-21 08:33N 47°42' W 122°28'1 7.4
2014-Nov-21 08:29N 47°42' W 122°28'7 7.7
2014-Nov-21 07:34N 47°50' W 122°28'1 7.7
2014-Nov-21 07:28N 47°50' W 122°29'4 8.1
2014-Nov-21 06:59N 47°54' W 122°30'4 8.2
2014-Nov-21 06:33N 47°57' W 122°34'7 7.0
2014-Nov-21 05:33N 48°02' W 122°39'9 6.9
2014-Nov-21 04:15N 48°10' W 122°47'6 8.1
2014-Nov-21 03:32N 48°11' W 122°56'6 6.3
2014-Nov-21 02:33N 48°12' W 123°05'6 7.0
2014-Nov-21 01:42N 48°10' W 123°13'1 6.4
2014-Nov-21 01:33N 48°10' W 123°15'1 6.0
2014-Nov-21 01:27N 48°09' W 123°16'6 7.0
2014-Nov-21 00:33N 48°08' W 123°25'0 0.2
2014-Nov-20 23:33N 48°08' W 123°25'0 0.0
2014-Nov-20 22:33N 48°08' W 123°25'0 0.0
2014-Nov-20 21:33N 48°08' W 123°25'0 0.0
2014-Nov-20 20:33N 48°08' W 123°25'0 0.0
2014-Nov-20 19:33N 48°08' W 123°25'0 0.0
2014-Nov-20 18:33N 48°08' W 123°25'0 0.0
2014-Nov-20 17:33N 48°08' W 123°25'0 0.0
2014-Nov-20 16:33N 48°08' W 123°25'0 0.0
2014-Nov-20 15:33N 48°08' W 123°25'0 0.0
2014-Nov-20 14:33N 48°08' W 123°25'0 0.0
2014-Nov-20 13:33N 48°08' W 123°25'0 0.0
2014-Nov-20 12:33N 48°08' W 123°25'0 0.0
2014-Nov-20 11:33N 48°08' W 123°25'0 0.0
2014-Nov-20 10:33N 48°08' W 123°25'0 0.0
2014-Nov-20 09:33N 48°08' W 123°25'0 0.0
2014-Nov-20 08:31N 48°08' W 123°25'0 0.1
2014-Nov-20 07:34N 48°08' W 123°25'7 7.2
2014-Nov-20 06:33N 48°10' W 123°15'8 8.3
2014-Nov-20 05:33N 48°13' W 123°03'10 9.5
2014-Nov-20 04:33N 48°12' W 122°48'1110.3
2014-Nov-20 03:30N 48°03' W 122°38'010.2
2014-Nov-20 03:28N 48°03' W 122°38'910.5
2014-Nov-20 02:34N 47°55' W 122°29'9 9.2
2014-Nov-20 01:33N 47°46' W 122°26'4 8.8
2014-Nov-20 01:09N 47°43' W 122°26'5 8.3
2014-Nov-20 00:33N 47°38' W 122°25'1 8.1
2014-Nov-20 00:29N 47°38' W 122°24'1 0.9
2014-Nov-19 23:33N 47°38' W 122°23'0 0.0
2014-Nov-19 23:29N 47°38' W 122°23'0 0.0
2014-Nov-19 22:33N 47°38' W 122°23'0 0.1
2014-Nov-19 22:28N 47°38' W 122°23'0 0.0
2014-Nov-19 21:33N 47°38' W 122°23'0 0.0
2014-Nov-19 21:33N 47°38' W 122°23'0 0.0
2014-Nov-19 20:34N 47°38' W 122°23'0 0.0
2014-Nov-19 20:33N 47°38' W 122°23'0 0.3
2014-Nov-19 19:33N 47°38' W 122°23'0 0.0
2014-Nov-19 19:33N 47°38' W 122°23'0 0.0
2014-Nov-19 18:33N 47°38' W 122°23'0 0.0
2014-Nov-19 18:32N 47°38' W 122°23'0 0.0
2014-Nov-19 17:33N 47°38' W 122°23'0 0.0
2014-Nov-19 17:00N 47°38' W 122°23'0 0.0
2014-Nov-19 16:33N 47°38' W 122°23'0 0.0
2014-Nov-19 16:30N 47°38' W 122°23'0 0.0
2014-Nov-19 15:33N 47°38' W 122°23'0 0.1
2014-Nov-19 15:30N 47°38' W 122°23'0 0.0
2014-Nov-19 14:33N 47°38' W 122°23'0 0.0
2014-Nov-19 13:54N 47°38' W 122°23'0 0.0
2014-Nov-19 13:34N 47°38' W 122°23'0 0.1
2014-Nov-19 13:29N 47°38' W 122°23'0 0.0
2014-Nov-19 12:33N 47°38' W 122°23'0 0.0
2014-Nov-19 12:29N 47°38' W 122°23'0 0.0
2014-Nov-19 11:33N 47°38' W 122°23'0 0.1
2014-Nov-19 11:29N 47°38' W 122°23'0 0.0
2014-Nov-19 10:34N 47°38' W 122°23'0 0.0
2014-Nov-19 10:29N 47°38' W 122°23'0 0.0
2014-Nov-19 09:33N 47°38' W 122°23'0 0.0
2014-Nov-19 09:29N 47°38' W 122°23'0 0.0
2014-Nov-19 08:33N 47°38' W 122°23'0 0.1
2014-Nov-19 08:28N 47°38' W 122°23'0 0.0
2014-Nov-19 07:34N 47°38' W 122°23'0 0.0
2014-Nov-19 07:33N 47°38' W 122°23'0 0.0
2014-Nov-19 06:58N 47°38' W 122°23'0 0.0
2014-Nov-19 06:33N 47°38' W 122°23'0 0.0
2014-Nov-19 05:33N 47°38' W 122°23'0 0.0
2014-Nov-19 05:33N 47°38' W 122°23'0 0.0
2014-Nov-19 04:33N 47°38' W 122°23'0 0.0
2014-Nov-19 04:33N 47°38' W 122°23'0 0.0
2014-Nov-19 03:33N 47°38' W 122°23'0 0.0
2014-Nov-19 03:33N 47°38' W 122°23'0 0.0
2014-Nov-19 02:32N 47°38' W 122°23'0 0.0
2014-Nov-19 02:32N 47°38' W 122°23'0 0.0
2014-Nov-19 01:33N 47°38' W 122°23'0 0.8
2014-Nov-19 01:33N 47°38' W 122°23'0 0.0
2014-Nov-19 00:33N 47°38' W 122°23'0 0.8
2014-Nov-19 00:33N 47°38' W 122°23'0 0.0
2014-Nov-18 23:33N 47°38' W 122°23'0 0.0
2014-Nov-18 23:33N 47°38' W 122°23'0 0.0
2014-Nov-18 22:33N 47°38' W 122°23'0 0.0
2014-Nov-18 22:33N 47°38' W 122°23'0 0.0
2014-Nov-18 21:33N 47°38' W 122°23'0 0.0
2014-Nov-18 21:33N 47°38' W 122°23'0 0.0
2014-Nov-18 20:33N 47°38' W 122°23'0 0.0
2014-Nov-18 20:28N 47°38' W 122°23'0 0.0
2014-Nov-18 19:33N 47°38' W 122°23'0 0.1
2014-Nov-18 19:27N 47°38' W 122°23'0 0.0
2014-Nov-18 18:34N 47°38' W 122°23'0 0.0
2014-Nov-18 18:31N 47°38' W 122°23'0 0.0
2014-Nov-18 17:33N 47°38' W 122°23'0 0.0
2014-Nov-18 17:30N 47°38' W 122°23'0 0.0
2014-Nov-18 16:33N 47°38' W 122°23'0 0.0
2014-Nov-18 16:31N 47°38' W 122°23'0 0.0
2014-Nov-18 15:33N 47°38' W 122°23'0 0.0
2014-Nov-18 15:31N 47°38' W 122°23'0 0.0
2014-Nov-18 14:33N 47°38' W 122°23'0 0.0
2014-Nov-18 14:30N 47°38' W 122°23'0 0.0
2014-Nov-18 13:33N 47°38' W 122°23'0 0.0
2014-Nov-18 13:30N 47°38' W 122°23'0 0.0
2014-Nov-18 12:33N 47°38' W 122°23'0 0.0
2014-Nov-18 12:31N 47°38' W 122°23'0 0.0
2014-Nov-18 11:34N 47°38' W 122°23'0 0.1
2014-Nov-18 11:30N 47°38' W 122°23'0 0.0
2014-Nov-18 10:33N 47°38' W 122°23'0 0.0
2014-Nov-18 10:30N 47°38' W 122°23'0 0.0
2014-Nov-18 09:33N 47°38' W 122°23'0 0.1
2014-Nov-18 09:30N 47°38' W 122°23'0 0.0
2014-Nov-18 08:33N 47°38' W 122°23'0 0.1
2014-Nov-18 08:30N 47°38' W 122°23'0 0.0
2014-Nov-18 07:33N 47°38' W 122°23'0 0.0
2014-Nov-18 07:30N 47°38' W 122°23'0 0.0
2014-Nov-18 07:00N 47°38' W 122°23'0 0.0
2014-Nov-18 06:33N 47°38' W 122°23'0 0.0
2014-Nov-18 05:33N 47°38' W 122°23'0 0.2
2014-Nov-18 05:30N 47°38' W 122°23'0 0.0
2014-Nov-18 04:33N 47°38' W 122°23'0 0.1
2014-Nov-18 04:30N 47°38' W 122°23'4 4.6
2014-Nov-18 03:34N 47°35' W 122°28'1 7.8
2014-Nov-18 03:30N 47°35' W 122°29'2 2.2
2014-Nov-18 02:33N 47°35' W 122°32'0 0.2
2014-Nov-18 02:24N 47°34' W 122°32'0 0.1
2014-Nov-18 01:33N 47°35' W 122°32'0 0.0
2014-Nov-18 01:29N 47°35' W 122°32'6 6.0
2014-Nov-18 00:33N 47°29' W 122°30'1 8.2
2014-Nov-18 00:29N 47°29' W 122°30'8 8.1
2014-Nov-17 23:33N 47°21' W 122°32'9 9.0
2014-Nov-17 22:33N 47°13' W 122°37'8 7.7
2014-Nov-17 21:33N 47°10' W 122°48'8 1.6
2014-Nov-17 16:33N 47°04' W 122°55'0 0.0
2014-Nov-17 15:17N 47°04' W 122°55'0 0.0
2014-Nov-17 14:27N 47°04' W 122°55'0 0.0
2014-Nov-17 09:18N 47°04' W 122°55'5 0.9
2014-Nov-17 03:33N 47°09' W 122°54'9 7.2
2014-Nov-17 02:15N 47°11' W 122°41'6 7.3
2014-Nov-17 01:23N 47°16' W 122°34'5 5.8
2014-Nov-17 00:33N 47°20' W 122°33'3 8.0
2014-Nov-17 00:09N 47°24' W 122°32'5 8.9
2014-Nov-16 23:34N 47°29' W 122°30'1 8.1
2014-Nov-16 23:29N 47°29' W 122°30'8 8.7
2014-Nov-16 22:33N 47°37' W 122°25'1 7.6
2014-Nov-16 22:28N 47°37' W 122°24'1 1.3
2014-Nov-16 21:22N 47°38' W 122°23'0 0.0
2014-Nov-16 20:32N 47°38' W 122°23'0 0.2
2014-Nov-16 20:21N 47°38' W 122°23'0 0.1
2014-Nov-16 19:33N 47°38' W 122°23'0 0.0
2014-Nov-16 19:31N 47°38' W 122°23'0 0.0
2014-Nov-16 18:33N 47°38' W 122°23'0 0.0
2014-Nov-16 18:30N 47°38' W 122°23'0 0.0
2014-Nov-16 17:33N 47°38' W 122°23'0 0.1
2014-Nov-16 17:30N 47°38' W 122°23'0 0.0
2014-Nov-16 16:34N 47°38' W 122°23'0 0.1
2014-Nov-16 16:30N 47°38' W 122°23'0 0.0
2014-Nov-16 15:33N 47°38' W 122°23'0 0.7
2014-Nov-16 15:30N 47°38' W 122°23'0 0.0
2014-Nov-16 14:33N 47°38' W 122°23'0 0.0
2014-Nov-16 14:30N 47°38' W 122°23'0 0.0
2014-Nov-16 13:33N 47°38' W 122°23'0 0.5
2014-Nov-16 13:29N 47°38' W 122°23'0 0.0
2014-Nov-16 12:33N 47°38' W 122°23'0 0.4
2014-Nov-16 12:28N 47°38' W 122°23'0 0.0
2014-Nov-16 11:34N 47°38' W 122°23'0 0.5
2014-Nov-16 11:29N 47°38' W 122°23'0 0.0
2014-Nov-16 10:33N 47°38' W 122°23'0 0.0
2014-Nov-16 10:33N 47°38' W 122°23'0 0.0
2014-Nov-16 09:33N 47°38' W 122°23'0 0.0
2014-Nov-16 09:33N 47°38' W 122°23'0 0.0
2014-Nov-16 08:33N 47°38' W 122°23'0 0.6
2014-Nov-16 08:33N 47°38' W 122°23'0 0.0
2014-Nov-16 07:33N 47°38' W 122°23'0 0.0
2014-Nov-16 07:32N 47°38' W 122°23'0 0.0
2014-Nov-16 06:57N 47°38' W 122°23'0 0.0
2014-Nov-16 06:33N 47°38' W 122°23'0 0.0
2014-Nov-16 05:33N 47°38' W 122°23'0 1.4
2014-Nov-16 05:32N 47°38' W 122°23'0 0.0
2014-Nov-16 04:33N 47°38' W 122°23'0 2.0
2014-Nov-16 04:32N 47°38' W 122°23'0 0.0
2014-Nov-16 03:33N 47°38' W 122°23'0 1.4
2014-Nov-16 03:32N 47°38' W 122°23'0 0.0
2014-Nov-16 02:33N 47°38' W 122°23'0 1.4
2014-Nov-16 02:32N 47°38' W 122°23'0 0.0
2014-Nov-16 01:34N 47°38' W 122°23'0 0.1
2014-Nov-16 01:00N 47°38' W 122°23'0 0.1
2014-Nov-16 00:33N 47°38' W 122°23'0 0.0
2014-Nov-16 00:09N 47°38' W 122°23'0 0.0
2014-Nov-15 23:33N 47°38' W 122°23'0 0.1
2014-Nov-15 23:29N 47°38' W 122°23'0 0.0
2014-Nov-15 22:33N 47°38' W 122°23'0 0.1
2014-Nov-15 21:58N 47°38' W 122°23'0 0.1
2014-Nov-15 21:33N 47°38' W 122°23'0 0.0
2014-Nov-15 20:56N 47°38' W 122°23'0 0.0
2014-Nov-15 20:33N 47°38' W 122°23'0 0.0
2014-Nov-15 20:31N 47°38' W 122°23'0 0.0
2014-Nov-15 19:33N 47°38' W 122°23'0 0.1
2014-Nov-15 19:31N 47°38' W 122°23'0 0.0
2014-Nov-15 18:33N 47°38' W 122°23'0 0.0
2014-Nov-15 18:31N 47°38' W 122°23'0 0.0
2014-Nov-15 17:33N 47°38' W 122°23'0 0.1
2014-Nov-15 17:30N 47°38' W 122°23'0 0.0
2014-Nov-15 16:33N 47°38' W 122°23'0 0.8
2014-Nov-15 16:30N 47°38' W 122°23'0 0.0
2014-Nov-15 15:33N 47°38' W 122°23'0 0.0
2014-Nov-15 15:29N 47°38' W 122°23'0 0.0
2014-Nov-15 14:33N 47°38' W 122°23'0 0.0
2014-Nov-15 14:22N 47°38' W 122°23'0 0.0
2014-Nov-15 13:33N 47°38' W 122°23'0 0.0
2014-Nov-15 13:32N 47°38' W 122°23'0 0.0
2014-Nov-15 12:33N 47°38' W 122°23'0 1.4
2014-Nov-15 12:32N 47°38' W 122°23'0 0.0
2014-Nov-15 11:33N 47°38' W 122°23'0 1.5
2014-Nov-15 11:32N 47°38' W 122°23'0 0.0
2014-Nov-15 10:33N 47°38' W 122°23'0 0.2
2014-Nov-15 10:31N 47°38' W 122°23'0 0.0
2014-Nov-15 09:33N 47°38' W 122°23'0 0.1
2014-Nov-15 08:58N 47°38' W 122°23'0 0.1
2014-Nov-15 08:33N 47°38' W 122°23'0 0.4
2014-Nov-15 08:27N 47°38' W 122°23'0 0.0
2014-Nov-15 07:34N 47°38' W 122°23'0 0.0
2014-Nov-15 07:00N 47°38' W 122°23'0 0.0
2014-Nov-15 06:33N 47°38' W 122°23'0 0.0
2014-Nov-15 05:33N 47°38' W 122°23'0 0.7
2014-Nov-15 05:30N 47°38' W 122°23'0 0.0
2014-Nov-15 04:33N 47°38' W 122°23'0 0.0
2014-Nov-15 04:30N 47°38' W 122°23'5 5.8
2014-Nov-15 03:33N 47°35' W 122°29'0 7.1
2014-Nov-15 03:30N 47°34' W 122°30'1 1.4
2014-Nov-15 02:33N 47°34' W 122°32'0 0.0
2014-Nov-15 01:59N 47°34' W 122°32'0 0.2
2014-Nov-15 01:34N 47°34' W 122°32'1 6.2
2014-Nov-15 01:24N 47°34' W 122°31'6 7.4
2014-Nov-15 00:34N 47°27' W 122°31'1 7.5
2014-Nov-15 00:29N 47°27' W 122°31'8 8.6
2014-Nov-14 23:33N 47°19' W 122°33'210.0
2014-Nov-14 23:19N 47°17' W 122°33'7 8.8
2014-Nov-14 22:33N 47°11' W 122°39'10 7.4
2014-Nov-14 21:15N 47°09' W 122°53'6 1.0
2014-Nov-14 15:31N 47°04' W 122°55'0 0.0
2014-Nov-14 08:31N 47°04' W 122°55'5 0.6
2014-Nov-14 00:28N 47°09' W 122°54'7 7.4
2014-Nov-13 23:31N 47°11' W 122°44'7 7.5
2014-Nov-13 22:33N 47°15' W 122°35'7 6.6
2014-Nov-13 21:33N 47°21' W 122°33'2 7.7
2014-Nov-13 21:14N 47°23' W 122°32'5 8.0
2014-Nov-13 20:33N 47°29' W 122°30'1 7.8
2014-Nov-13 20:29N 47°29' W 122°30'5 5.9
2014-Nov-13 19:33N 47°35' W 122°32'0 0.0
2014-Nov-13 19:14N 47°35' W 122°32'0 0.3
2014-Nov-13 18:33N 47°34' W 122°32'0 0.0
2014-Nov-13 17:33N 47°34' W 122°32'0 0.0
2014-Nov-13 17:23N 47°35' W 122°32'0 0.0
2014-Nov-13 16:33N 47°35' W 122°32'0 0.0
2014-Nov-13 16:32N 47°35' W 122°32'0 0.0
2014-Nov-13 15:33N 47°35' W 122°32'0 0.0
2014-Nov-13 15:17N 47°35' W 122°32'0 0.0
2014-Nov-13 14:33N 47°35' W 122°32'0 0.0
2014-Nov-13 14:32N 47°35' W 122°32'0 0.0
2014-Nov-13 13:33N 47°35' W 122°32'0 0.0
2014-Nov-13 13:01N 47°35' W 122°32'0 0.0
2014-Nov-13 12:33N 47°35' W 122°32'0 0.0
2014-Nov-13 12:31N 47°35' W 122°32'0 0.0
2014-Nov-13 11:33N 47°35' W 122°32'0 0.0
2014-Nov-13 10:33N 47°35' W 122°32'0 0.0
2014-Nov-13 10:13N 47°35' W 122°32'0 0.0
2014-Nov-13 09:33N 47°35' W 122°32'0 0.0
2014-Nov-13 09:32N 47°35' W 122°32'0 0.0
2014-Nov-13 08:33N 47°35' W 122°32'0 0.0
2014-Nov-13 08:32N 47°35' W 122°32'0 0.0
2014-Nov-13 07:33N 47°35' W 122°32'0 0.0
2014-Nov-13 07:32N 47°35' W 122°32'0 0.0
2014-Nov-13 06:51N 47°35' W 122°32'0 0.0
2014-Nov-13 06:34N 47°35' W 122°32'0 0.0
2014-Nov-13 05:33N 47°35' W 122°32'0 0.0
2014-Nov-13 05:07N 47°35' W 122°32'0 0.0
2014-Nov-13 04:33N 47°35' W 122°32'0 0.0
2014-Nov-13 04:26N 47°35' W 122°32'0 0.0
2014-Nov-13 03:33N 47°35' W 122°32'0 0.0
2014-Nov-13 03:31N 47°35' W 122°32'0 0.0
2014-Nov-13 02:33N 47°35' W 122°32'0 0.0
2014-Nov-13 02:32N 47°35' W 122°32'0 0.0
2014-Nov-13 01:33N 47°35' W 122°32'0 0.0
2014-Nov-13 01:31N 47°35' W 122°32'0 0.0
2014-Nov-13 00:33N 47°35' W 122°32'0 0.0
2014-Nov-13 00:16N 47°35' W 122°32'5 6.8
2014-Nov-12 23:33N 47°30' W 122°30'0 7.3
2014-Nov-12 23:31N 47°30' W 122°30'8 8.4
2014-Nov-12 22:33N 47°22' W 122°32'0 8.3
2014-Nov-12 22:30N 47°21' W 122°32'8 8.9
2014-Nov-12 21:33N 47°13' W 122°36'8 7.9
2014-Nov-12 20:30N 47°10' W 122°47'8 4.2
2014-Nov-12 18:33N 47°04' W 122°55'0 0.0
2014-Nov-12 17:30N 47°04' W 122°55'5 0.3
2014-Nov-12 00:04N 47°09' W 122°53'12 7.9
2014-Nov-11 22:31N 47°13' W 122°36'7 7.5
2014-Nov-11 21:33N 47°20' W 122°33'6 7.6
2014-Nov-11 20:43N 47°26' W 122°31'1 8.9
2014-Nov-11 20:33N 47°28' W 122°31'1 8.3
2014-Nov-11 20:27N 47°28' W 122°31'6 6.8
2014-Nov-11 19:33N 47°34' W 122°32'0 0.0
2014-Nov-11 19:33N 47°34' W 122°32'0 0.0
2014-Nov-11 18:34N 47°34' W 122°32'0 0.0
2014-Nov-11 18:18N 47°34' W 122°32'0 0.0
2014-Nov-11 17:33N 47°34' W 122°32'0 0.0
2014-Nov-11 17:32N 47°34' W 122°32'0 0.0
2014-Nov-11 16:33N 47°34' W 122°32'0 0.0
2014-Nov-11 16:22N 47°34' W 122°32'0 0.1
2014-Nov-11 15:34N 47°35' W 122°32'  
Track history (hours):
 
Tides and Currents Weather Stations Pressure Air Temp Water Temp Dewpoint Dewpoint Depression Visibility Wind Speed Wind Dir Waves Ship Positions

F/V Harvestor

Owner: F/V HARVESTOR INC., EDMONDS, WA. More information available from US FCC via Universal Licensing System and Coast Guard Vessel Documentation Center.

Last reported at 2014-Nov-21 15:33 UTC. Time now 2014-Nov-21 16:34 UTC.
Position N 47°38' W 122°23'.

Length 40 m.

Type: Fishing. MMSI: 367083650.

Date/timePositionNaut miles runAvg speedWind from/ knotsBaromVisibWave heightAir tempDewpointWater temp
2014-Nov-21 15:33N 47°38' W 122°23'0 0.0
2014-Nov-21 15:30N 47°38' W 122°23'0 0.0
2014-Nov-21 14:33N 47°38' W 122°23'0 0.0
2014-Nov-21 14:30N 47°38' W 122°23'0 0.0
2014-Nov-21 13:33N 47°38' W 122°23'0 0.0
2014-Nov-21 13:29N 47°38' W 122°23'0 0.0
2014-Nov-21 12:33N 47°38' W 122°23'0 0.0
2014-Nov-21 12:29N 47°38' W 122°23'0 0.0
2014-Nov-21 11:33N 47°38' W 122°23'0 0.0
2014-Nov-21 11:29N 47°38' W 122°23'0 0.0
2014-Nov-21 10:33N 47°38' W 122°23'0 0.0
2014-Nov-21 10:29N 47°38' W 122°23'0 0.0
2014-Nov-21 09:33N 47°38' W 122°23'0 0.2
2014-Nov-21 09:29N 47°38' W 122°23'5 5.5
2014-Nov-21 08:33N 47°42' W 122°28'1 7.4
2014-Nov-21 08:29N 47°42' W 122°28'7 7.7
2014-Nov-21 07:34N 47°50' W 122°28'1 7.7
2014-Nov-21 07:28N 47°50' W 122°29'4 8.1
2014-Nov-21 06:59N 47°54' W 122°30'4 8.2
2014-Nov-21 06:33N 47°57' W 122°34'7 7.0
2014-Nov-21 05:33N 48°02' W 122°39'9 6.9
2014-Nov-21 04:15N 48°10' W 122°47'6 8.1
2014-Nov-21 03:32N 48°11' W 122°56'6 6.3
2014-Nov-21 02:33N 48°12' W 123°05'6 7.0
2014-Nov-21 01:42N 48°10' W 123°13'1 6.4
2014-Nov-21 01:33N 48°10' W 123°15'1 6.0
2014-Nov-21 01:27N 48°09' W 123°16'6 7.0
2014-Nov-21 00:33N 48°08' W 123°25'0 0.2
2014-Nov-20 23:33N 48°08' W 123°25'0 0.0
2014-Nov-20 22:33N 48°08' W 123°25'0 0.0
2014-Nov-20 21:33N 48°08' W 123°25'0 0.0
2014-Nov-20 20:33N 48°08' W 123°25'0 0.0
2014-Nov-20 19:33N 48°08' W 123°25'0 0.0
2014-Nov-20 18:33N 48°08' W 123°25'0 0.0
2014-Nov-20 17:33N 48°08' W 123°25'0 0.0
2014-Nov-20 16:33N 48°08' W 123°25'0 0.0
2014-Nov-20 15:33N 48°08' W 123°25'0 0.0
2014-Nov-20 14:33N 48°08' W 123°25'0 0.0
2014-Nov-20 13:33N 48°08' W 123°25'0 0.0
2014-Nov-20 12:33N 48°08' W 123°25'0 0.0
2014-Nov-20 11:33N 48°08' W 123°25'0 0.0
2014-Nov-20 10:33N 48°08' W 123°25'0 0.0
2014-Nov-20 09:33N 48°08' W 123°25'0 0.0
2014-Nov-20 08:31N 48°08' W 123°25'0 0.1
2014-Nov-20 07:34N 48°08' W 123°25'7 7.2
2014-Nov-20 06:33N 48°10' W 123°15'8 8.3
2014-Nov-20 05:33N 48°13' W 123°03'10 9.5
2014-Nov-20 04:33N 48°12' W 122°48'1110.3
2014-Nov-20 03:30N 48°03' W 122°38'010.2
2014-Nov-20 03:28N 48°03' W 122°38'910.5
2014-Nov-20 02:34N 47°55' W 122°29'9 9.2
2014-Nov-20 01:33N 47°46' W 122°26'4 8.8
2014-Nov-20 01:09N 47°43' W 122°26'5 8.3
2014-Nov-20 00:33N 47°38' W 122°25'1 8.1
2014-Nov-20 00:29N 47°38' W 122°24'1 0.9
2014-Nov-19 23:33N 47°38' W 122°23'0 0.0
2014-Nov-19 23:29N 47°38' W 122°23'0 0.0
2014-Nov-19 22:33N 47°38' W 122°23'0 0.1
2014-Nov-19 22:28N 47°38' W 122°23'0 0.0
2014-Nov-19 21:33N 47°38' W 122°23'0 0.0
2014-Nov-19 21:33N 47°38' W 122°23'0 0.0
2014-Nov-19 20:34N 47°38' W 122°23'0 0.0
2014-Nov-19 20:33N 47°38' W 122°23'0 0.3
2014-Nov-19 19:33N 47°38' W 122°23'0 0.0
2014-Nov-19 19:33N 47°38' W 122°23'0 0.0
2014-Nov-19 18:33N 47°38' W 122°23'0 0.0
2014-Nov-19 18:32N 47°38' W 122°23'0 0.0
2014-Nov-19 17:33N 47°38' W 122°23'0 0.0
2014-Nov-19 17:00N 47°38' W 122°23'0 0.0
2014-Nov-19 16:33N 47°38' W 122°23'0 0.0
2014-Nov-19 16:30N 47°38' W 122°23'0 0.0
2014-Nov-19 15:33N 47°38' W 122°23'0 0.1
2014-Nov-19 15:30N 47°38' W 122°23'0 0.0
2014-Nov-19 14:33N 47°38' W 122°23'0 0.0
2014-Nov-19 13:54N 47°38' W 122°23'0 0.0
2014-Nov-19 13:34N 47°38' W 122°23'0 0.1
2014-Nov-19 13:29N 47°38' W 122°23'0 0.0
2014-Nov-19 12:33N 47°38' W 122°23'0 0.0
2014-Nov-19 12:29N 47°38' W 122°23'0 0.0
2014-Nov-19 11:33N 47°38' W 122°23'0 0.1
2014-Nov-19 11:29N 47°38' W 122°23'0 0.0
2014-Nov-19 10:34N 47°38' W 122°23'0 0.0
2014-Nov-19 10:29N 47°38' W 122°23'0 0.0
2014-Nov-19 09:33N 47°38' W 122°23'0 0.0
2014-Nov-19 09:29N 47°38' W 122°23'0 0.0
2014-Nov-19 08:33N 47°38' W 122°23'0 0.1
2014-Nov-19 08:28N 47°38' W 122°23'0 0.0
2014-Nov-19 07:34N 47°38' W 122°23'0 0.0
2014-Nov-19 07:33N 47°38' W 122°23'0 0.0
2014-Nov-19 06:58N 47°38' W 122°23'0 0.0
2014-Nov-19 06:33N 47°38' W 122°23'0 0.0
2014-Nov-19 05:33N 47°38' W 122°23'0 0.0
2014-Nov-19 05:33N 47°38' W 122°23'0 0.0
2014-Nov-19 04:33N 47°38' W 122°23'0 0.0
2014-Nov-19 04:33N 47°38' W 122°23'0 0.0
2014-Nov-19 03:33N 47°38' W 122°23'0 0.0
2014-Nov-19 03:33N 47°38' W 122°23'0 0.0
2014-Nov-19 02:32N 47°38' W 122°23'0 0.0
2014-Nov-19 02:32N 47°38' W 122°23'0 0.0
2014-Nov-19 01:33N 47°38' W 122°23'0 0.8
2014-Nov-19 01:33N 47°38' W 122°23'0 0.0
2014-Nov-19 00:33N 47°38' W 122°23'0 0.8
2014-Nov-19 00:33N 47°38' W 122°23'0 0.0
2014-Nov-18 23:33N 47°38' W 122°23'0 0.0
2014-Nov-18 23:33N 47°38' W 122°23'0 0.0
2014-Nov-18 22:33N 47°38' W 122°23'0 0.0
2014-Nov-18 22:33N 47°38' W 122°23'0 0.0
2014-Nov-18 21:33N 47°38' W 122°23'0 0.0
2014-Nov-18 21:33N 47°38' W 122°23'0 0.0
2014-Nov-18 20:33N 47°38' W 122°23'0 0.0
2014-Nov-18 20:28N 47°38' W 122°23'0 0.0
2014-Nov-18 19:33N 47°38' W 122°23'0 0.1
2014-Nov-18 19:27N 47°38' W 122°23'0 0.0
2014-Nov-18 18:34N 47°38' W 122°23'0 0.0
2014-Nov-18 18:31N 47°38' W 122°23'0 0.0
2014-Nov-18 17:33N 47°38' W 122°23'0 0.0
2014-Nov-18 17:30N 47°38' W 122°23'0 0.0
2014-Nov-18 16:33N 47°38' W 122°23'0 0.0
2014-Nov-18 16:31N 47°38' W 122°23'0 0.0
2014-Nov-18 15:33N 47°38' W 122°23'0 0.0
2014-Nov-18 15:31N 47°38' W 122°23'0 0.0
2014-Nov-18 14:33N 47°38' W 122°23'0 0.0
2014-Nov-18 14:30N 47°38' W 122°23'0 0.0
2014-Nov-18 13:33N 47°38' W 122°23'0 0.0
2014-Nov-18 13:30N 47°38' W 122°23'0 0.0
2014-Nov-18 12:33N 47°38' W 122°23'0 0.0
2014-Nov-18 12:31N 47°38' W 122°23'0 0.0
2014-Nov-18 11:34N 47°38' W 122°23'0 0.1
2014-Nov-18 11:30N 47°38' W 122°23'0 0.0
2014-Nov-18 10:33N 47°38' W 122°23'0 0.0
2014-Nov-18 10:30N 47°38' W 122°23'0 0.0
2014-Nov-18 09:33N 47°38' W 122°23'0 0.1
2014-Nov-18 09:30N 47°38' W 122°23'0 0.0
2014-Nov-18 08:33N 47°38' W 122°23'0 0.1
2014-Nov-18 08:30N 47°38' W 122°23'0 0.0
2014-Nov-18 07:33N 47°38' W 122°23'0 0.0
2014-Nov-18 07:30N 47°38' W 122°23'0 0.0
2014-Nov-18 07:00N 47°38' W 122°23'0 0.0
2014-Nov-18 06:33N 47°38' W 122°23'0 0.0
2014-Nov-18 05:33N 47°38' W 122°23'0 0.2
2014-Nov-18 05:30N 47°38' W 122°23'0 0.0
2014-Nov-18 04:33N 47°38' W 122°23'0 0.1
2014-Nov-18 04:30N 47°38' W 122°23'4 4.6
2014-Nov-18 03:34N 47°35' W 122°28'1 7.8
2014-Nov-18 03:30N 47°35' W 122°29'2 2.2
2014-Nov-18 02:33N 47°35' W 122°32'0 0.2
2014-Nov-18 02:24N 47°34' W 122°32'0 0.1
2014-Nov-18 01:33N 47°35' W 122°32'0 0.0
2014-Nov-18 01:29N 47°35' W 122°32'6 6.0
2014-Nov-18 00:33N 47°29' W 122°30'1 8.2
2014-Nov-18 00:29N 47°29' W 122°30'8 8.1
2014-Nov-17 23:33N 47°21' W 122°32'9 9.0
2014-Nov-17 22:33N 47°13' W 122°37'8 7.7
2014-Nov-17 21:33N 47°10' W 122°48'8 1.6
2014-Nov-17 16:33N 47°04' W 122°55'0 0.0
2014-Nov-17 15:17N 47°04' W 122°55'0 0.0
2014-Nov-17 14:27N 47°04' W 122°55'0 0.0
2014-Nov-17 09:18N 47°04' W 122°55'5 0.9
2014-Nov-17 03:33N 47°09' W 122°54'9 7.2
2014-Nov-17 02:15N 47°11' W 122°41'6 7.3
2014-Nov-17 01:23N 47°16' W 122°34'5 5.8
2014-Nov-17 00:33N 47°20' W 122°33'3 8.0
2014-Nov-17 00:09N 47°24' W 122°32'5 8.9
2014-Nov-16 23:34N 47°29' W 122°30'1 8.1
2014-Nov-16 23:29N 47°29' W 122°30'8 8.7
2014-Nov-16 22:33N 47°37' W 122°25'1 7.6
2014-Nov-16 22:28N 47°37' W 122°24'1 1.3
2014-Nov-16 21:22N 47°38' W 122°23'0 0.0
2014-Nov-16 20:32N 47°38' W 122°23'0 0.2
2014-Nov-16 20:21N 47°38' W 122°23'0 0.1
2014-Nov-16 19:33N 47°38' W 122°23'0 0.0
2014-Nov-16 19:31N 47°38' W 122°23'0 0.0
2014-Nov-16 18:33N 47°38' W 122°23'0 0.0
2014-Nov-16 18:30N 47°38' W 122°23'0 0.0
2014-Nov-16 17:33N 47°38' W 122°23'0 0.1
2014-Nov-16 17:30N 47°38' W 122°23'0 0.0
2014-Nov-16 16:34N 47°38' W 122°23'0 0.1
2014-Nov-16 16:30N 47°38' W 122°23'0 0.0
2014-Nov-16 15:33N 47°38' W 122°23'0 0.7
2014-Nov-16 15:30N 47°38' W 122°23'0 0.0
2014-Nov-16 14:33N 47°38' W 122°23'0 0.0
2014-Nov-16 14:30N 47°38' W 122°23'0 0.0
2014-Nov-16 13:33N 47°38' W 122°23'0 0.5
2014-Nov-16 13:29N 47°38' W 122°23'0 0.0
2014-Nov-16 12:33N 47°38' W 122°23'0 0.4
2014-Nov-16 12:28N 47°38' W 122°23'0 0.0
2014-Nov-16 11:34N 47°38' W 122°23'0 0.5
2014-Nov-16 11:29N 47°38' W 122°23'0 0.0
2014-Nov-16 10:33N 47°38' W 122°23'0 0.0
2014-Nov-16 10:33N 47°38' W 122°23'0 0.0
2014-Nov-16 09:33N 47°38' W 122°23'0 0.0
2014-Nov-16 09:33N 47°38' W 122°23'0 0.0
2014-Nov-16 08:33N 47°38' W 122°23'0 0.6
2014-Nov-16 08:33N 47°38' W 122°23'0 0.0
2014-Nov-16 07:33N 47°38' W 122°23'0 0.0
2014-Nov-16 07:32N 47°38' W 122°23'0 0.0
2014-Nov-16 06:57N 47°38' W 122°23'0 0.0
2014-Nov-16 06:33N 47°38' W 122°23'0 0.0
2014-Nov-16 05:33N 47°38' W 122°23'0 1.4
2014-Nov-16 05:32N 47°38' W 122°23'0 0.0
2014-Nov-16 04:33N 47°38' W 122°23'0 2.0
2014-Nov-16 04:32N 47°38' W 122°23'0 0.0
2014-Nov-16 03:33N 47°38' W 122°23'0 1.4
2014-Nov-16 03:32N 47°38' W 122°23'0 0.0
2014-Nov-16 02:33N 47°38' W 122°23'0 1.4
2014-Nov-16 02:32N 47°38' W 122°23'0 0.0
2014-Nov-16 01:34N 47°38' W 122°23'0 0.1
2014-Nov-16 01:00N 47°38' W 122°23'0 0.1
2014-Nov-16 00:33N 47°38' W 122°23'0 0.0
2014-Nov-16 00:09N 47°38' W 122°23'0 0.0
2014-Nov-15 23:33N 47°38' W 122°23'0 0.1
2014-Nov-15 23:29N 47°38' W 122°23'0 0.0
2014-Nov-15 22:33N 47°38' W 122°23'0 0.1
2014-Nov-15 21:58N 47°38' W 122°23'0 0.1
2014-Nov-15 21:33N 47°38' W 122°23'0 0.0
2014-Nov-15 20:56N 47°38' W 122°23'0 0.0
2014-Nov-15 20:33N 47°38' W 122°23'0 0.0
2014-Nov-15 20:31N 47°38' W 122°23'0 0.0
2014-Nov-15 19:33N 47°38' W 122°23'0 0.1
2014-Nov-15 19:31N 47°38' W 122°23'0 0.0
2014-Nov-15 18:33N 47°38' W 122°23'0 0.0
2014-Nov-15 18:31N 47°38' W 122°23'0 0.0
2014-Nov-15 17:33N 47°38' W 122°23'0 0.1
2014-Nov-15 17:30N 47°38' W 122°23'0 0.0
2014-Nov-15 16:33N 47°38' W 122°23'0 0.8
2014-Nov-15 16:30N 47°38' W 122°23'0 0.0
2014-Nov-15 15:33N 47°38' W 122°23'0 0.0
2014-Nov-15 15:29N 47°38' W 122°23'0 0.0
2014-Nov-15 14:33N 47°38' W 122°23'0 0.0
2014-Nov-15 14:22N 47°38' W 122°23'0 0.0
2014-Nov-15 13:33N 47°38' W 122°23'0 0.0
2014-Nov-15 13:32N 47°38' W 122°23'0 0.0
2014-Nov-15 12:33N 47°38' W 122°23'0 1.4
2014-Nov-15 12:32N 47°38' W 122°23'0 0.0
2014-Nov-15 11:33N 47°38' W 122°23'0 1.5
2014-Nov-15 11:32N 47°38' W 122°23'0 0.0
2014-Nov-15 10:33N 47°38' W 122°23'0 0.2
2014-Nov-15 10:31N 47°38' W 122°23'0 0.0
2014-Nov-15 09:33N 47°38' W 122°23'0 0.1
2014-Nov-15 08:58N 47°38' W 122°23'0 0.1
2014-Nov-15 08:33N 47°38' W 122°23'0 0.4
2014-Nov-15 08:27N 47°38' W 122°23'0 0.0
2014-Nov-15 07:34N 47°38' W 122°23'0 0.0
2014-Nov-15 07:00N 47°38' W 122°23'0 0.0
2014-Nov-15 06:33N 47°38' W 122°23'0 0.0
2014-Nov-15 05:33N 47°38' W 122°23'0 0.7
2014-Nov-15 05:30N 47°38' W 122°23'0 0.0
2014-Nov-15 04:33N 47°38' W 122°23'0 0.0
2014-Nov-15 04:30N 47°38' W 122°23'5 5.8
2014-Nov-15 03:33N 47°35' W 122°29'0 7.1
2014-Nov-15 03:30N 47°34' W 122°30'1 1.4
2014-Nov-15 02:33N 47°34' W 122°32'0 0.0
2014-Nov-15 01:59N 47°34' W 122°32'0 0.2
2014-Nov-15 01:34N 47°34' W 122°32'1 6.2
2014-Nov-15 01:24N 47°34' W 122°31'6 7.4
2014-Nov-15 00:34N 47°27' W 122°31'1 7.5
2014-Nov-15 00:29N 47°27' W 122°31'8 8.6
2014-Nov-14 23:33N 47°19' W 122°33'210.0
2014-Nov-14 23:19N 47°17' W 122°33'7 8.8
2014-Nov-14 22:33N 47°11' W 122°39'10 7.4
2014-Nov-14 21:15N 47°09' W 122°53'6 1.0
2014-Nov-14 15:31N 47°04' W 122°55'0 0.0
2014-Nov-14 08:31N 47°04' W 122°55'5 0.6
2014-Nov-14 00:28N 47°09' W 122°54'7 7.4
2014-Nov-13 23:31N 47°11' W 122°44'7 7.5
2014-Nov-13 22:33N 47°15' W 122°35'7 6.6
2014-Nov-13 21:33N 47°21' W 122°33'2 7.7
2014-Nov-13 21:14N 47°23' W 122°32'5 8.0
2014-Nov-13 20:33N 47°29' W 122°30'1 7.8
2014-Nov-13 20:29N 47°29' W 122°30'5 5.9
2014-Nov-13 19:33N 47°35' W 122°32'0 0.0
2014-Nov-13 19:14N 47°35' W 122°32'0 0.3
2014-Nov-13 18:33N 47°34' W 122°32'0 0.0
2014-Nov-13 17:33N 47°34' W 122°32'0 0.0
2014-Nov-13 17:23N 47°35' W 122°32'0 0.0
2014-Nov-13 16:33N 47°35' W 122°32'0 0.0
2014-Nov-13 16:32N 47°35' W 122°32'0 0.0
2014-Nov-13 15:33N 47°35' W 122°32'0 0.0
2014-Nov-13 15:17N 47°35' W 122°32'0 0.0
2014-Nov-13 14:33N 47°35' W 122°32'0 0.0
2014-Nov-13 14:32N 47°35' W 122°32'0 0.0
2014-Nov-13 13:33N 47°35' W 122°32'0 0.0
2014-Nov-13 13:01N 47°35' W 122°32'0 0.0
2014-Nov-13 12:33N 47°35' W 122°32'0 0.0
2014-Nov-13 12:31N 47°35' W 122°32'0 0.0
2014-Nov-13 11:33N 47°35' W 122°32'0 0.0
2014-Nov-13 10:33N 47°35' W 122°32'0 0.0
2014-Nov-13 10:13N 47°35' W 122°32'0 0.0
2014-Nov-13 09:33N 47°35' W 122°32'0 0.0
2014-Nov-13 09:32N 47°35' W 122°32'0 0.0
2014-Nov-13 08:33N 47°35' W 122°32'0 0.0
2014-Nov-13 08:32N 47°35' W 122°32'0 0.0
2014-Nov-13 07:33N 47°35' W 122°32'0 0.0
2014-Nov-13 07:32N 47°35' W 122°32'0 0.0
2014-Nov-13 06:51N 47°35' W 122°32'0 0.0
2014-Nov-13 06:34N 47°35' W 122°32'0 0.0
2014-Nov-13 05:33N 47°35' W 122°32'0 0.0
2014-Nov-13 05:07N 47°35' W 122°32'0 0.0
2014-Nov-13 04:33N 47°35' W 122°32'0 0.0
2014-Nov-13 04:26N 47°35' W 122°32'0 0.0
2014-Nov-13 03:33N 47°35' W 122°32'0 0.0
2014-Nov-13 03:31N 47°35' W 122°32'0 0.0
2014-Nov-13 02:33N 47°35' W 122°32'0 0.0
2014-Nov-13 02:32N 47°35' W 122°32'0 0.0
2014-Nov-13 01:33N 47°35' W 122°32'0 0.0
2014-Nov-13 01:31N 47°35' W 122°32'0 0.0
2014-Nov-13 00:33N 47°35' W 122°32'0 0.0
2014-Nov-13 00:16N 47°35' W 122°32'5 6.8
2014-Nov-12 23:33N 47°30' W 122°30'0 7.3
2014-Nov-12 23:31N 47°30' W 122°30'8 8.4
2014-Nov-12 22:33N 47°22' W 122°32'0 8.3
2014-Nov-12 22:30N 47°21' W 122°32'8 8.9
2014-Nov-12 21:33N 47°13' W 122°36'8 7.9
2014-Nov-12 20:30N 47°10' W 122°47'8 4.2
2014-Nov-12 18:33N 47°04' W 122°55'0 0.0
2014-Nov-12 17:30N 47°04' W 122°55'5 0.3
2014-Nov-12 00:04N 47°09' W 122°53'12 7.9
2014-Nov-11 22:31N 47°13' W 122°36'7 7.5
2014-Nov-11 21:33N 47°20' W 122°33'6 7.6
2014-Nov-11 20:43N 47°26' W 122°31'1 8.9
2014-Nov-11 20:33N 47°28' W 122°31'1 8.3
2014-Nov-11 20:27N 47°28' W 122°31'6 6.8
2014-Nov-11 19:33N 47°34' W 122°32'0 0.0
2014-Nov-11 19:33N 47°34' W 122°32'0 0.0
2014-Nov-11 18:34N 47°34' W 122°32'0 0.0
2014-Nov-11 18:18N 47°34' W 122°32'0 0.0
2014-Nov-11 17:33N 47°34' W 122°32'0 0.0
2014-Nov-11 17:32N 47°34' W 122°32'0 0.0
2014-Nov-11 16:33N 47°34' W 122°32'0 0.0
2014-Nov-11 16:22N 47°34' W 122°32'0 0.1
2014-Nov-11 15:34N 47°35' W 122°32'  

Dump ship's entire track history